Time;durP1;ratioP1;P1;durP2;ratioP2;P2;SDS_P1;SDS_P2;PMS_P1;PMS_P2;Temp;Humidity;BMP_temperature;BMP_pressure;BME280_temperature;BME280_humidity;BME280_pressure;Samples;Min_cycle;Max_cycle;Signal;HPM_P1;HPM_P2
2021/10/26 04:43:52;;;;;;;20.02;10.03;;;;;;;-3.46;77.02;101778.77;1747609;80;21757;-37
2021/10/26 04:46:26;;;;;;;15.10;8.13;;;;;;;-3.36;76.61;101781.64;1743839;80;21702;-38
2021/10/26 04:48:58;;;;;;;22.27;9.55;;;;;;;-3.32;76.43;101780.73;1715845;80;21120;-34
2021/10/26 04:51:26;;;;;;;15.63;8.13;;;;;;;-3.24;76.38;101784.81;1748026;79;22020;-38
2021/10/26 04:53:56;;;;;;;17.90;7.95;;;;;;;-3.16;76.32;101784.51;1718353;80;21069;-38
2021/10/26 04:56:25;;;;;;;47.45;17.32;;;;;;;-3.07;76.19;101790.36;1750993;79;21026;-38
2021/10/26 04:59:01;;;;;;;35.55;14.50;;;;;;;-3.01;75.99;101785.72;1745787;80;21018;-34
2021/10/26 05:01:33;;;;;;;41.30;15.38;;;;;;;-2.98;75.65;101784.27;1756190;79;21054;-34
2021/10/26 05:04:06;;;;;;;21.40;10.93;;;;;;;-2.97;75.49;101785.16;1699433;80;21704;-38
2021/10/26 05:06:37;;;;;;;23.55;9.85;;;;;;;-3.02;75.39;101787.36;1787381;79;21127;-37
2021/10/26 05:09:06;;;;;;;20.88;8.73;;;;;;;-3.06;75.57;101799.83;1741444;79;21091;-38
2021/10/26 05:11:34;;;;;;;21.45;7.22;;;;;;;-3.06;75.62;101805.84;1759345;78;21017;-35
2021/10/26 05:14:05;;;;;;;20.65;8.18;;;;;;;-3.10;75.52;101797.79;1777353;79;21559;-35
2021/10/26 05:16:52;;;;;;;18.02;8.78;;;;;;;-3.10;75.68;101792.28;1708707;80;21645;-35
2021/10/26 05:19:41;;;;;;;19.05;8.28;;;;;;;-3.02;75.88;101796.70;1694650;82;21044;-38
2021/10/26 05:22:37;;;;;;;20.15;9.03;;;;;;;-2.93;75.83;101793.59;1725201;81;21048;-38
2021/10/26 05:25:15;;;;;;;24.55;9.15;;;;;;;-2.82;75.86;101796.60;1703033;82;20991;-38
2021/10/26 05:27:48;;;;;;;20.95;10.08;;;;;;;-2.71;75.88;101797.44;1722103;81;21714;-35
2021/10/26 05:30:22;;;;;;;34.25;14.00;;;;;;;-2.60;75.87;101796.98;1715191;80;21048;-35
2021/10/26 05:32:52;;;;;;;22.87;9.43;;;;;;;-2.50;75.82;101802.00;1696676;81;21052;-35
2021/10/26 05:35:23;;;;;;;25.10;10.63;;;;;;;-2.36;75.91;101801.40;1702414;80;21041;-38
2021/10/26 05:37:51;;;;;;;26.75;11.43;;;;;;;-2.21;75.84;101810.22;1693214;83;21129;-34
2021/10/26 05:40:20;;;;;;;26.62;11.97;;;;;;;-2.09;75.75;101806.39;1679142;82;21033;-36
2021/10/26 05:42:49;;;;;;;23.30;11.15;;;;;;;-2.01;75.74;101803.14;1686434;82;21614;-35
2021/10/26 05:55:50;;;;;;;39.65;15.38;;;;;;;-1.44;75.75;101809.47;1724957;78;21125;-35
2021/10/26 05:58:25;;;;;;;26.68;13.65;;;;;;;-1.24;75.80;101815.63;1685823;82;21077;-35
2021/10/26 06:00:53;;;;;;;44.85;17.30;;;;;;;-1.12;75.93;101811.35;1696724;81;21096;-38
2021/10/26 06:07:14;;;;;;;74.42;29.95;;;;;;;-0.85;76.23;101815.38;1692911;80;21945;-38
2021/10/26 06:10:32;;;;;;;61.45;26.20;;;;;;;-0.63;76.65;101817.77;1625533;84;21053;-34
2021/10/26 06:13:05;;;;;;;64.37;27.58;;;;;;;-0.50;76.88;101811.77;1703294;82;21104;-39
2021/10/26 06:15:30;;;;;;;75.00;31.48;;;;;;;-0.36;76.86;101818.73;1626378;83;21112;-37
2021/10/26 06:17:58;;;;;;;68.35;30.52;;;;;;;-0.27;76.64;101811.66;1651460;83;21037;-40
2021/10/26 06:23:57;;;;;;;60.90;28.32;;;;;;;-0.06;76.68;101819.53;1704603;82;21926;-36
2021/10/26 06:26:26;;;;;;;63.63;30.27;;;;;;;0.12;76.82;101821.55;1682936;82;21076;-40
2021/10/26 06:29:03;;;;;;;61.98;28.00;;;;;;;0.28;76.76;101824.31;1674603;83;21129;-36
2021/10/26 06:31:33;;;;;;;67.08;32.53;;;;;;;0.40;76.60;101816.09;1718468;82;21132;-40
2021/10/26 06:34:06;;;;;;;67.08;30.00;;;;;;;0.56;76.49;101818.38;1676265;83;21556;-36
2021/10/26 06:36:34;;;;;;;78.80;33.10;;;;;;;0.69;76.36;101819.66;1650653;84;21084;-40
2021/10/26 06:39:01;;;;;;;75.35;34.03;;;;;;;0.84;76.13;101820.64;1709300;82;21597;-40
2021/10/26 06:41:33;;;;;;;64.27;30.52;;;;;;;0.94;75.86;101817.86;1709084;82;21643;-35
2021/10/26 06:44:41;;;;;;;78.10;33.25;;;;;;;1.07;75.59;101816.92;1665832;82;21084;-35
2021/10/26 06:47:44;;;;;;;67.65;30.95;;;;;;;1.17;74.98;101816.70;1674544;83;21101;-37
2021/10/26 06:50:35;;;;;;;75.20;33.00;;;;;;;1.33;74.75;101815.94;1672947;82;21556;-40
2021/10/26 06:53:24;;;;;;;62.60;31.70;;;;;;;1.45;74.67;101814.51;1690519;82;21092;-40
2021/10/26 06:56:16;;;;;;;65.28;28.57;;;;;;;1.61;74.53;101819.80;1649165;84;21067;-35
2021/10/26 06:59:00;;;;;;;85.38;33.63;;;;;;;1.75;73.66;101815.48;1581964;86;21604;-39
2021/10/26 07:01:46;;;;;;;65.97;33.05;;;;;;;1.84;73.07;101808.27;1576533;87;21112;-39
2021/10/26 07:04:19;;;;;;;66.67;31.90;;;;;;;1.94;72.81;101811.00;1602015;87;21185;-40
2021/10/26 07:15:06;;;;;;;53.78;27.27;;;;;;;2.37;71.84;101805.32;1685079;83;21124;-35
2021/10/26 07:25:24;;;;;;;53.78;26.40;;;;;;;2.93;71.22;101798.15;1621889;83;21569;-34
2021/10/26 07:27:59;;;;;;;57.10;28.40;;;;;;;3.19;70.73;101797.39;1599074;87;21066;-34
2021/10/26 07:30:36;;;;;;;50.45;24.18;;;;;;;3.37;70.43;101801.36;1618102;85;21134;-34
2021/10/26 08:20:20;;;;;;;22.32;12.43;;;;;;;6.14;59.76;101772.12;1749953;80;21073;-38
2021/10/26 08:23:06;;;;;;;22.62;11.75;;;;;;;6.35;58.79;101769.52;1707530;81;21603;-35
2021/10/26 08:25:46;;;;;;;28.75;11.22;;;;;;;6.48;56.97;101764.39;1678528;82;21588;-39
2021/10/26 08:28:18;;;;;;;21.20;10.65;;;;;;;6.58;56.59;101773.04;1688387;82;21116;-35
2021/10/26 08:31:18;;;;;;;16.48;9.75;;;;;;;6.70;56.61;101771.75;1601844;85;21263;-35
2021/10/26 08:40:25;;;;;;;17.30;9.73;;;;;;;7.00;55.08;101768.13;1719300;82;21039;-35
2021/10/26 08:47:15;;;;;;;15.13;7.65;;;;;;;7.27;53.72;101767.86;1697391;79;21249;-39
2021/10/26 08:54:02;;;;;;;16.62;5.90;;;;;;;7.55;51.51;101757.15;1733050;78;21161;-35
2021/10/26 08:56:31;;;;;;;10.98;5.37;;;;;;;7.71;50.67;101762.03;1729919;80;21150;-35
2021/10/26 08:59:46;;;;;;;16.45;6.20;;;;;;;7.80;49.52;101752.37;1679975;82;21594;-39
2021/10/26 09:18:01;;;;;;;9.65;4.80;;;;;;;8.04;47.87;101731.45;1667953;81;21219;-38
2021/10/26 09:21:01;;;;;;;8.90;4.67;;;;;;;8.04;47.29;101727.54;1592088;87;21167;-39
2021/10/26 09:23:39;;;;;;;7.65;5.03;;;;;;;8.06;48.40;101724.56;1602878;87;21231;-35
2021/10/26 09:28:55;;;;;;;10.15;6.20;;;;;;;8.18;47.71;101728.89;1598462;87;21150;-35
2021/10/26 09:31:44;;;;;;;15.38;5.40;;;;;;;8.21;46.99;101721.16;1559702;89;21719;-39
2021/10/26 09:34:25;;;;;;;9.28;5.08;;;;;;;8.26;47.36;101722.19;1640430;85;21048;-35
2021/10/26 09:37:18;;;;;;;10.53;5.28;;;;;;;8.35;47.50;101718.97;1620905;86;21091;-35
2021/10/26 09:39:57;;;;;;;10.05;5.40;;;;;;;8.44;46.65;101714.09;1620740;86;21154;-34
2021/10/26 09:42:36;;;;;;;8.28;5.50;;;;;;;8.49;46.67;101708.61;1583580;89;21537;-35
2021/10/26 09:45:36;;;;;;;12.28;6.33;;;;;;;8.55;46.15;101706.18;1581794;87;21162;-39
2021/10/26 09:51:51;;;;;;;15.20;6.30;;;;;;;8.78;46.61;101686.88;1558727;89;21357;-39
2021/10/26 09:59:30;;;;;;;19.65;6.28;;;;;;;9.55;43.64;101685.08;1647999;84;21134;-35
2021/10/26 10:02:32;;;;;;;13.08;6.08;;;;;;;9.82;43.69;101678.38;1651904;83;22859;31
2021/10/26 10:18:46;;;;;;;12.50;6.42;;;;;;;12.56;37.98;101646.56;1664270;81;21203;31
2021/10/26 10:21:17;;;;;;;14.25;6.42;;;;;;;13.06;36.83;101639.75;1654423;84;21100;-35
2021/10/26 10:23:51;;;;;;;;;;;;;;;13.39;36.02;101630.02;1639394;86;21444;-38
2021/10/26 10:26:20;;;;;;;17.30;7.25;;;;;;;13.60;35.83;101625.84;1630652;86;20209;-37
2021/10/26 10:28:49;;;;;;;15.72;6.00;;;;;;;13.81;35.03;101625.59;1579401;88;21561;-35
2021/10/26 10:31:19;;;;;;;11.35;6.22;;;;;;;13.92;35.04;101617.78;1626288;86;21155;-36
2021/10/26 10:33:50;;;;;;;15.08;6.03;;;;;;;14.09;33.68;101622.73;1613808;86;21112;-40
2021/10/26 10:36:19;;;;;;;11.78;6.12;;;;;;;14.19;33.59;101617.06;1604233;86;21115;-36
2021/10/26 10:42:48;;;;;;;30.97;7.03;;;;;;;14.04;33.18;101603.83;1641018;82;22408;-39
2021/10/26 10:45:35;;;;;;;10.70;6.45;;;;;;;13.90;33.58;101597.14;1604128;86;21177;-40
2021/10/26 10:48:09;;;;;;;15.18;6.15;;;;;;;13.98;33.72;101582.75;1619505;85;21638;-36
2021/10/26 10:50:38;;;;;;;14.20;6.17;;;;;;;14.32;34.01;101585.10;1610337;85;21125;-40
2021/10/26 10:53:21;;;;;;;17.32;6.30;;;;;;;14.77;32.22;101570.41;1654338;84;21075;-36
2021/10/26 10:56:20;;;;;;;10.08;5.58;;;;;;;14.96;32.25;101579.23;1655121;84;21122;-40
2021/10/26 11:01:34;;;;;;;12.70;6.08;;;;;;;14.91;31.17;101573.97;1728360;80;21020;-40
2021/10/26 11:06:49;;;;;;;13.32;5.85;;;;;;;14.92;30.69;101570.89;1721985;81;21088;-37
2021/10/26 11:09:42;;;;;;;21.97;5.30;;;;;;;14.82;31.53;101562.95;1688315;83;21122;-40
2021/10/26 11:12:21;;;;;;;12.98;5.25;;;;;;;14.96;30.75;101565.64;1679279;82;21105;-35
2021/10/26 11:14:56;;;;;;;12.55;5.05;;;;;;;14.99;30.79;101557.73;1709627;82;21497;-36
2021/10/26 11:21:27;;;;;;;12.47;5.62;;;;;;;15.11;30.43;101563.45;1745694;80;21110;-40
2021/10/26 11:24:07;;;;;;;13.60;6.08;;;;;;;15.09;30.70;101558.19;1723285;80;21050;-37
2021/10/26 11:29:43;;;;;;;13.53;5.92;;;;;;;15.05;30.56;101541.05;1737617;80;21064;-36
2021/10/26 11:32:24;;;;;;;11.88;6.12;;;;;;;15.08;30.89;101526.13;1723935;80;21905;-39
2021/10/26 11:34:55;;;;;;;17.52;7.42;;;;;;;15.06;30.92;101523.03;1713447;82;21048;-35
2021/10/26 11:37:24;;;;;;;10.78;5.22;;;;;;;15.03;30.91;101518.65;1711379;81;21092;-40
2021/10/26 11:39:56;;;;;;;13.62;5.90;;;;;;;14.97;30.43;101524.36;1702334;82;21182;-40
2021/10/26 11:42:32;;;;;;;16.23;5.87;;;;;;;14.63;31.01;101517.25;1686017;82;21071;-36
2021/10/26 11:45:22;;;;;;;14.50;5.95;;;;;;;14.27;31.65;101514.48;1704613;82;21394;-35
2021/10/26 11:50:31;;;;;;;17.73;5.78;;;;;;;13.67;32.25;101518.08;1714494;81;20189;-35
2021/10/26 11:55:33;;;;;;;13.72;5.85;;;;;;;13.25;32.85;101509.45;1750369;80;21018;-40
2021/10/26 11:58:33;;;;;;;10.43;5.75;;;;;;;13.12;33.32;101500.55;1709838;82;21470;-39
2021/10/26 12:01:01;;;;;;;15.28;7.35;;;;;;;13.03;33.83;101502.66;1726143;80;21615;-39
2021/10/26 12:03:31;;;;;;;9.63;5.33;;;;;;;12.99;33.89;101498.69;1698505;80;21017;-35
2021/10/26 12:06:02;;;;;;;10.32;5.45;;;;;;;13.17;33.90;101492.28;1742742;80;21148;-36
2021/10/26 12:08:36;;;;;;;8.35;5.65;;;;;;;13.63;33.48;101495.72;1743174;79;21138;-39
2021/10/26 12:11:20;;;;;;;17.98;5.75;;;;;;;13.91;31.78;101491.48;1719164;81;21133;-39
2021/10/26 12:13:52;;;;;;;13.43;5.28;;;;;;;13.91;32.48;101487.09;1686755;83;21045;-40
2021/10/26 12:18:46;;;;;;;8.43;5.67;;;;;;;13.52;32.62;101484.69;1765236;80;20998;-36
2021/10/26 12:21:20;;;;;;;12.88;6.05;;;;;;;13.44;32.49;101489.00;1763713;80;21067;-36
2021/10/26 12:23:54;;;;;;;10.45;5.65;;;;;;;13.42;32.66;101478.04;1710172;81;21938;-36
2021/10/26 12:26:22;;;;;;;10.93;5.92;;;;;;;13.36;32.62;101484.13;1764714;80;21525;-40
2021/10/26 12:28:58;;;;;;;8.30;5.40;;;;;;;13.31;32.63;101482.78;1725711;80;21755;-40
2021/10/26 12:31:30;;;;;;;12.40;5.95;;;;;;;13.38;32.75;101468.36;1763216;79;21091;-36
2021/10/26 12:34:06;;;;;;;8.98;5.87;;;;;;;13.61;32.55;101471.14;1746746;80;21460;-36
2021/10/26 12:36:59;;;;;;;9.48;6.05;;;;;;;13.85;32.04;101464.27;1751495;80;21124;-40
2021/10/26 12:39:32;;;;;;;17.37;6.30;;;;;;;14.09;31.05;101460.89;1621267;86;21112;-36
2021/10/26 12:42:01;;;;;;;10.03;6.03;;;;;;;14.38;31.52;101464.94;1589853;85;21164;-36
2021/10/26 12:48:24;;;;;;;11.55;5.85;;;;;;;14.88;30.51;101457.58;1659863;84;21670;-36
2021/10/26 12:51:02;;;;;;;15.55;6.53;;;;;;;14.62;29.65;101460.20;1645456;85;21542;-40
2021/10/26 12:53:41;;;;;;;13.25;6.78;;;;;;;14.08;30.56;101455.59;1594005;87;21659;-40
2021/10/26 12:56:29;;;;;;;11.25;6.95;;;;;;;13.44;31.74;101450.87;1623807;86;21675;-35
2021/10/26 13:01:47;;;;;;;13.83;6.53;;;;;;;12.59;33.13;101448.84;1642062;84;21248;-39
2021/10/26 13:04:21;;;;;;;10.75;6.22;;;;;;;12.20;33.35;101445.80;1621041;86;21034;-40
2021/10/26 13:10:00;;;;;;;12.60;5.87;;;;;;;11.61;34.39;101441.96;1596787;86;21515;-40
2021/10/26 13:12:35;;;;;;;14.65;8.40;;;;;;;11.41;35.22;101446.02;1630947;85;21269;-40
2021/10/26 13:15:44;;;;;;;17.35;7.37;;;;;;;11.33;35.56;101450.28;1646459;85;21125;-37
2021/10/26 13:18:25;;;;;;;11.12;6.70;;;;;;;11.42;35.58;101442.53;1683663;83;21062;-36
2021/10/26 13:23:38;;;;;;;13.80;7.12;;;;;;;12.32;34.67;101432.38;1700696;82;21060;-36
2021/10/26 13:26:47;;;;;;;13.13;6.53;;;;;;;12.76;33.91;101424.95;1616002;87;21663;-36
2021/10/26 13:29:37;;;;;;;13.25;5.87;;;;;;;13.02;32.73;101435.66;1628418;86;21098;-39
2021/10/26 13:45:23;;;;;;;16.05;6.55;;;;;;;11.93;34.33;101425.79;1676598;79;21091;-40
2021/10/26 13:51:44;;;;;;;12.78;6.53;;;;;;;12.33;34.10;101428.88;1692070;83;21201;-39
2021/10/26 13:54:15;;;;;;;16.25;7.33;;;;;;;12.84;33.43;101423.69;1636111;84;21087;-39
2021/10/26 14:03:02;;;;;;;8.83;5.67;;;;;;;13.26;32.46;101417.47;1651331;84;21084;-39
2021/10/26 14:05:35;;;;;;;12.35;5.97;;;;;;;13.30;32.08;101419.70;1653349;84;21168;-35
2021/10/26 14:08:05;;;;;;;14.87;5.85;;;;;;;13.04;32.24;101408.95;1670350;83;21144;-34
2021/10/26 14:10:41;;;;;;;19.48;7.12;;;;;;;12.69;32.79;101412.17;1694914;81;21130;-37
2021/10/26 14:13:11;;;;;;;13.30;5.80;;;;;;;12.35;33.38;101415.33;1715141;80;21673;-35
2021/10/26 14:15:39;;;;;;;10.48;6.22;;;;;;;12.13;33.86;101409.87;1650869;83;21170;-35
2021/10/26 14:18:13;;;;;;;12.03;6.10;;;;;;;12.05;34.09;101417.19;1657213;82;21105;-35
2021/10/26 14:20:45;;;;;;;13.70;6.10;;;;;;;11.98;34.04;101411.88;1687312;83;21724;-36
2021/10/26 14:29:15;;;;;;;15.35;6.55;;;;;;;11.84;34.43;101417.83;1740822;81;21075;-40
2021/10/26 14:31:44;;;;;;;12.75;6.65;;;;;;;11.66;34.58;101420.63;1694473;82;21122;-36
2021/10/26 14:34:13;;;;;;;13.93;6.97;;;;;;;11.42;34.99;101419.86;1713666;82;21021;-36
2021/10/26 14:36:53;;;;;;;17.45;7.55;;;;;;;11.10;35.40;101416.75;1720313;81;21116;-37
2021/10/26 14:53:16;;;;;;;27.73;10.32;;;;;;;9.06;38.62;101434.02;1721425;82;21020;-40
